EGBBEGGD

Guest
Details From EGBB - Birmingham
To EGGD - Bristol International
Flight Number -
Tags generated
Created
Modified
Stats Distance 74 nm / 137 km
Max Altitude 3,700 ft / 1,128 m
Waypoints 3
Social Downloads 9
Likes 0
Share VATSIM

Download

Looking for another format? Having issues loading an existing format? Contact us
Advertisement - Login to hide

Notes

Basic altitude profile: - Ascent Rate: 2500ft/min - Ascent Speed: 250kts - Cruise Altitude: 35000ft - Cruise Speed: 420kts - Descent Rate: 1500ft/min - Descent Speed: 250kts Options: - Use NATs: yes - Use PACOTS: yes - Use low airways: yes - Use high airways: yes

Route

EGBB BADIM EGGD

ID Type Via Altitude Latitude Longitude Leg Dist Tot Dist Heading (true) Name
O EGBB APT - 0 ft / 0 m 52.45597˚ -1.75038˚ - 0 nm - Birmingham
BADIM FIX - 3,700 ft / 1,128 m 51.64389˚ -2.51111˚ 56 nm 56 nm 210° / 210° -
O EGGD APT - 0 ft / 0 m 51.38266˚ -2.71892˚ 17 nm 73 nm 206° / 206° Bristol International

Altitude Profile

Advertisement - Login to hide

EGBB

Details ICAO EGBB (BHX)
Name Birmingham
Region United Kingdom
Timezone Europe/London (UTC+1.0)
Stats Elevation 327 ft / 100 m (AMSL)
Location 52.455966° -1.750378°
Runways 1
Magnetic Variation 1.074° W

METAR

EGBB 220420Z 33006KT 9000 NSC 11/09 Q1017

Decode

TAF

TAF EGBB 212256Z 2200/2224 33008KT 9999 FEW045 PROB30 TEMPO 2201/2208 8000 BECMG 2206/2209 03010KT BECMG 2221/2224 8000

Decode

Departure Runways

ID Width Length Bearing (true) Bearing (mag) Surface Threshold Offset Overrun Length
15 151 ft / 46 m 8,477 ft / 2,584 m 145.87° 146.94° Asphalt 925 ft / 282 m 0 ft / 0 m
33 151 ft / 46 m 8,477 ft / 2,584 m 325.89° 326.96° Asphalt 958 ft / 292 m 0 ft / 0 m

EGGD

Details ICAO EGGD (BRS)
Name Bristol International
Region United Kingdom
Timezone Europe/London (UTC+1.0)
Stats Elevation 622 ft / 190 m (AMSL)
Location 51.382658° -2.718918°
Runways 1
Magnetic Variation 1.285° W

METAR

EGGD 220420Z AUTO 03010KT 9999 NCD 11/10 Q1016

Decode

TAF

TAF EGGD 212300Z 2200/2224 03008KT 9999 FEW040 PROB30 TEMPO 2204/2209 8000 BKN005 PROB30 TEMPO 2214/2219 5000 +SHRA

Decode

Destination Runways

ID Width Length Bearing (true) Bearing (mag) Surface Threshold Offset Overrun Length
09 148 ft / 45 m 6,655 ft / 2,029 m 86.42° 87.70° Asphalt 0 ft / 0 m 0 ft / 0 m
27 148 ft / 45 m 6,655 ft / 2,029 m 266.44° 267.72° Asphalt 499 ft / 152 m 0 ft / 0 m

Approach Navaids

Runway Type Ident Frequency Range Bearing (true) Bearing (mag) Slope Elevation
09 Localiser IBON 110.15 MHz 18 nm / 33 km 86.40° 87.68° - 622 ft / 190 m (AMSL)
09 Glidescope IBON 110.15 MHz 10 nm / 19 km 86.43° 87.72° 3.00° 622 ft / 190 m (AMSL)
09 DME IBON 110.15 MHz 18 nm / 33 km - - - 632 ft / 193 m (AMSL)
27 Localiser IBTS 110.15 MHz 18 nm / 33 km 266.47° 267.76° - 622 ft / 190 m (AMSL)
27 Glidescope IBTS 110.15 MHz 10 nm / 19 km 266.43° 267.72° 3.00° 632 ft / 193 m (AMSL)
27 DME IBTS 110.15 MHz 18 nm / 33 km - - - 631 ft / 192 m (AMSL)

Popular Alternatives